首页
METAR-TAF:

METAR-TAF

机场 :

高知機場

高知, 日本

纬度: 33-32N, 经度: 133-40E, 海拔: 7米

当前天气观测

该预报发布于1小时和2分钟前的23:00 UTC
风速6节,风向北转西北
温度 5°C
湿度 81%
气压 1024 hPa
能见度10公里或以上
少量云层高于3000英尺

METAR: RJOK 122300Z 33006KT 9999 FEW030 05/02 Q1024

时间: 09:02 (00:02 UTC)

预报

该预报发布于49分钟前的23:13 UTC
预报有效从13日的 00点(UTC)到 14日的 06点(UTC)
风速6节,风向
能见度10公里或以上
少量云层高于3000英尺
成为
从 13日的 00点(UTC)到 13日的 02点(UTC)
风速5节,风向南转西南
成为
从 13日的 04点(UTC)到 13日的 06点(UTC)
风速9节,风向北转西北

TAF: RJOK 122313Z 1300/1406 35006KT 9999 FEW030 BECMG 1300/1302 20005KT BECMG 1304/1306 33009KT

超过4000个机场的气象观测和天气预报(METAR&TAF报告)。

可查询的气象台以黄色和红色小点在地图上表示。

将鼠标移到小点上方,可查看气象台名称。

然后点击查看天气观测和预报。

如需切换地图:点击带黑十字的绿色按钮放大地图;点击带横线的绿色按钮缩小地图;或者点击绿色箭头查看邻近地区的地图。


METAR-TAF: